createdAt,value
2018-03-07T00:00:56.416Z,98083.00
2018-03-07T00:03:24.036Z,98082.33
2018-03-07T00:05:51.728Z,98082.92
2018-03-07T00:08:19.342Z,98075.30
2018-03-07T00:10:47.007Z,98080.97
2018-03-07T00:13:14.625Z,98078.19
2018-03-07T00:15:42.273Z,98086.66
2018-03-07T00:18:09.893Z,98088.19
2018-03-07T00:20:37.600Z,98101.26
2018-03-07T00:23:05.225Z,98102.81
2018-03-07T00:25:32.829Z,98100.34
2018-03-07T00:28:00.508Z,98102.86
2018-03-07T00:30:28.112Z,98108.97
2018-03-07T00:32:55.769Z,98104.02
2018-03-07T00:35:23.388Z,98114.46
2018-03-07T00:37:51.040Z,98112.45
2018-03-07T00:40:18.641Z,98116.23
2018-03-07T00:42:46.293Z,98112.81
2018-03-07T00:45:13.903Z,98110.47
2018-03-07T00:47:41.561Z,98107.45
2018-03-07T00:50:09.175Z,98109.43
2018-03-07T00:52:36.834Z,98107.66
2018-03-07T00:55:04.473Z,98107.27
2018-03-07T00:57:32.131Z,98101.80
2018-03-07T00:59:59.752Z,98109.25
2018-03-07T01:02:27.416Z,98111.67
2018-03-07T01:04:55.055Z,98113.57
2018-03-07T01:07:22.674Z,98121.03
2018-03-07T01:09:50.348Z,98113.14
2018-03-07T01:12:17.956Z,98111.55
2018-03-07T01:14:45.748Z,98107.30
2018-03-07T01:17:13.353Z,98111.56
2018-03-07T01:19:41.001Z,98115.41
2018-03-07T01:22:08.611Z,98116.94
2018-03-07T01:24:36.276Z,98117.98
2018-03-07T01:27:03.892Z,98121.06
2018-03-07T01:29:31.588Z,98126.54
2018-03-07T01:31:59.205Z,98129.28
2018-03-07T01:34:26.892Z,98127.74
2018-03-07T01:36:54.513Z,98130.84
2018-03-07T01:39:22.164Z,98124.24
2018-03-07T01:41:49.807Z,98117.39
2018-03-07T01:44:17.450Z,98116.31
2018-03-07T01:46:45.060Z,98111.66
2018-03-07T01:49:12.731Z,98113.67
2018-03-07T01:51:52.209Z,98115.25
2018-03-07T01:54:19.816Z,98120.20
2018-03-07T01:56:47.466Z,98115.50
2018-03-07T01:59:15.079Z,98120.45
2018-03-07T02:01:42.741Z,98129.90
2018-03-07T02:04:10.353Z,98125.58
2018-03-07T02:06:38.006Z,98122.18
2018-03-07T02:09:05.628Z,98125.23
2018-03-07T02:11:33.292Z,98115.41
2018-03-07T02:14:00.935Z,98124.77
2018-03-07T02:16:28.590Z,98123.27
2018-03-07T02:18:56.218Z,98118.39
2018-03-07T02:21:23.896Z,98114.48
2018-03-07T02:23:51.512Z,98112.14
2018-03-07T02:26:19.177Z,98111.11
2018-03-07T02:28:46.809Z,98110.66
2018-03-07T02:31:14.437Z,98116.27
2018-03-07T02:33:42.089Z,98121.67
2018-03-07T02:36:21.435Z,98121.86
2018-03-07T02:38:49.089Z,98119.63
2018-03-07T02:41:16.700Z,98121.34
2018-03-07T02:43:44.365Z,98119.78
2018-03-07T02:46:12.009Z,98120.64
2018-03-07T02:48:39.661Z,98119.22
2018-03-07T02:51:07.286Z,98116.91
2018-03-07T02:53:34.936Z,98114.25
2018-03-07T02:56:02.556Z,98118.73
2018-03-07T02:58:30.201Z,98125.75
2018-03-07T03:00:57.855Z,98124.93
2018-03-07T03:03:25.525Z,98128.89
2018-03-07T03:05:53.131Z,98136.26
2018-03-07T03:08:20.790Z,98138.63
2018-03-07T03:13:21.320Z,98137.73
2018-03-07T03:15:48.928Z,98141.62
2018-03-07T03:18:16.578Z,98145.34
2018-03-07T03:20:44.201Z,98149.09
2018-03-07T03:23:11.860Z,98157.94
2018-03-07T03:25:39.463Z,98158.09
2018-03-07T03:28:07.145Z,98159.41
2018-03-07T03:30:34.817Z,98166.28
2018-03-07T03:33:02.477Z,98165.80
2018-03-07T03:35:30.132Z,98158.99
2018-03-07T03:37:57.753Z,98152.51
2018-03-07T03:40:25.431Z,98147.19
2018-03-07T03:42:53.070Z,98156.52
2018-03-07T03:45:20.733Z,98151.91
2018-03-07T03:47:48.338Z,98155.56
2018-03-07T03:50:15.984Z,98156.41
2018-03-07T03:52:43.607Z,98159.05
2018-03-07T03:55:11.255Z,98161.24
2018-03-07T03:57:38.879Z,98163.52
2018-03-07T04:00:06.541Z,98159.50
2018-03-07T04:02:34.184Z,98172.06
2018-03-07T04:05:01.834Z,98167.25
2018-03-07T04:07:29.451Z,98172.59
2018-03-07T04:09:57.129Z,98162.14
2018-03-07T04:12:24.740Z,98171.56
2018-03-07T04:14:52.413Z,98163.26
2018-03-07T04:17:20.027Z,98160.55
2018-03-07T04:19:47.733Z,98158.82
2018-03-07T04:22:15.385Z,98159.30
2018-03-07T04:24:43.008Z,98153.38
2018-03-07T04:27:10.658Z,98162.20
2018-03-07T04:29:38.290Z,98175.52
2018-03-07T04:32:05.947Z,98179.45
2018-03-07T04:34:33.582Z,98184.06
2018-03-07T04:37:01.252Z,98190.75
2018-03-07T04:39:28.856Z,98191.69
2018-03-07T04:41:56.520Z,98189.20
2018-03-07T04:44:24.142Z,98197.70
2018-03-07T04:46:52.135Z,98196.41
2018-03-07T04:49:19.795Z,98190.69
2018-03-07T04:51:47.409Z,98196.84
2018-03-07T04:54:15.086Z,98193.72
2018-03-07T04:56:42.697Z,98192.41
2018-03-07T04:59:10.373Z,98189.45
2018-03-07T05:01:37.998Z,98186.70
2018-03-07T05:04:05.637Z,98191.07
2018-03-07T05:06:33.259Z,98205.27
2018-03-07T05:09:00.958Z,98205.71
2018-03-07T05:11:28.579Z,98217.16
2018-03-07T05:13:56.240Z,98205.12
2018-03-07T05:16:23.859Z,98213.43
2018-03-07T05:18:51.457Z,98205.67
2018-03-07T05:21:19.144Z,98203.56
2018-03-07T05:23:46.768Z,98205.45
2018-03-07T05:26:14.416Z,98201.36
2018-03-07T05:28:42.036Z,98199.41
2018-03-07T05:31:09.684Z,98199.77
2018-03-07T05:33:37.337Z,98195.52
2018-03-07T05:36:05.024Z,98204.17
2018-03-07T05:38:32.631Z,98208.30
2018-03-07T05:41:00.273Z,98218.53
2018-03-07T05:43:27.880Z,98214.31
2018-03-07T05:45:55.528Z,98220.32
2018-03-07T05:48:23.132Z,98215.97
2018-03-07T05:50:50.788Z,98220.95
2018-03-07T05:53:18.404Z,98221.62
2018-03-07T05:55:46.017Z,98220.36
2018-03-07T05:58:13.667Z,98226.72
2018-03-07T06:00:41.292Z,98233.64
2018-03-07T06:03:08.947Z,98231.83
2018-03-07T06:05:36.560Z,98235.01
2018-03-07T06:08:04.204Z,98231.55
2018-03-07T06:10:31.841Z,98236.38
2018-03-07T06:12:59.584Z,98239.58
2018-03-07T06:15:27.205Z,98241.39
2018-03-07T06:17:54.853Z,98243.39
2018-03-07T06:20:22.461Z,98243.47
2018-03-07T06:22:50.119Z,98248.89
2018-03-07T06:25:17.714Z,98252.31
2018-03-07T06:27:45.372Z,98255.27
2018-03-07T06:30:12.985Z,98259.37
2018-03-07T06:32:40.671Z,98257.47
2018-03-07T06:35:08.292Z,98258.91
2018-03-07T06:37:36.003Z,98263.65
2018-03-07T06:40:03.716Z,98270.55
2018-03-07T06:42:31.371Z,98276.70
2018-03-07T06:44:58.988Z,98288.01
2018-03-07T06:47:26.608Z,98288.27
2018-03-07T06:49:54.261Z,98285.05
2018-03-07T06:52:21.884Z,98285.02
2018-03-07T06:54:49.552Z,98275.38
2018-03-07T06:57:17.167Z,98285.58
2018-03-07T06:59:44.893Z,98285.77
2018-03-07T07:02:12.499Z,98297.21
2018-03-07T07:04:40.141Z,98296.08
2018-03-07T07:07:07.752Z,98300.79
2018-03-07T07:09:35.422Z,98294.95
2018-03-07T07:12:03.054Z,98294.40
2018-03-07T07:14:30.705Z,98295.20
2018-03-07T07:16:58.362Z,98307.42
2018-03-07T07:19:26.060Z,98300.80
2018-03-07T07:21:53.687Z,98301.61
2018-03-07T07:24:21.354Z,98310.01
2018-03-07T07:26:48.969Z,98314.46
2018-03-07T07:29:16.633Z,98322.72
2018-03-07T07:31:44.239Z,98323.17
2018-03-07T07:34:11.920Z,98329.19
2018-03-07T07:36:39.524Z,98322.25
2018-03-07T07:39:07.246Z,98324.95
2018-03-07T07:41:34.866Z,98324.50
2018-03-07T07:44:02.520Z,98334.72
2018-03-07T07:46:30.123Z,98337.13
2018-03-07T07:48:57.823Z,98339.36
2018-03-07T07:51:25.432Z,98343.74
2018-03-07T07:53:53.077Z,98341.97
2018-03-07T07:56:20.684Z,98344.28
2018-03-07T07:58:48.369Z,98346.80
2018-03-07T08:01:15.992Z,98354.67
2018-03-07T08:03:43.660Z,98362.84
2018-03-07T08:06:11.272Z,98361.71
2018-03-07T08:08:38.932Z,98363.72
2018-03-07T08:11:06.573Z,98362.20
2018-03-07T08:13:34.267Z,98374.89
2018-03-07T08:16:01.923Z,98372.55
2018-03-07T08:18:29.594Z,98378.77
2018-03-07T08:20:57.201Z,98379.13
2018-03-07T08:23:24.880Z,98375.51
2018-03-07T08:25:52.487Z,98390.04
2018-03-07T08:28:20.133Z,98386.88
2018-03-07T08:30:47.747Z,98391.97
2018-03-07T08:33:15.408Z,98389.14
2018-03-07T08:35:43.100Z,98392.99
2018-03-07T08:38:10.726Z,98394.09
2018-03-07T08:40:38.341Z,98404.62
2018-03-07T08:43:05.998Z,98399.08
2018-03-07T08:45:33.615Z,98397.66
2018-03-07T08:48:01.264Z,98397.95
2018-03-07T08:50:28.917Z,98398.84
2018-03-07T08:52:56.520Z,98402.38
2018-03-07T08:55:24.202Z,98408.20
2018-03-07T08:57:51.821Z,98402.50
2018-03-07T09:00:19.546Z,98408.08
2018-03-07T09:02:47.179Z,98406.99
2018-03-07T09:05:14.920Z,98414.84
2018-03-07T09:07:42.533Z,98412.79
2018-03-07T09:10:10.266Z,98408.66
2018-03-07T09:12:37.845Z,98410.06
2018-03-07T09:15:05.512Z,98408.41
2018-03-07T09:17:33.125Z,98407.84
2018-03-07T09:20:00.805Z,98414.48
2018-03-07T09:22:28.481Z,98413.53
2018-03-07T09:24:56.135Z,98420.42
2018-03-07T09:27:23.744Z,98419.66
2018-03-07T09:29:51.396Z,98420.08
2018-03-07T09:32:19.045Z,98423.56
2018-03-07T09:34:46.726Z,98415.98
2018-03-07T09:37:14.404Z,98422.67
2018-03-07T09:39:42.078Z,98419.45
2018-03-07T09:42:09.706Z,98421.20
2018-03-07T09:44:37.380Z,98418.88
2018-03-07T09:47:05.013Z,98424.81
2018-03-07T09:49:32.664Z,98419.48
2018-03-07T09:52:00.297Z,98418.09
2018-03-07T09:54:28.030Z,98418.50
2018-03-07T09:56:55.661Z,98416.85
2018-03-07T09:59:23.353Z,98422.28
2018-03-07T10:01:51.016Z,98426.53
2018-03-07T10:04:18.685Z,98420.34
2018-03-07T10:06:46.296Z,98426.90
2018-03-07T10:09:13.958Z,98427.88
2018-03-07T10:11:41.560Z,98437.05
2018-03-07T10:14:09.217Z,98434.34
2018-03-07T10:16:36.907Z,98444.73
2018-03-07T10:19:04.616Z,98438.59
2018-03-07T10:21:32.238Z,98447.95
2018-03-07T10:23:59.888Z,98444.84
2018-03-07T10:26:27.512Z,98441.38
2018-03-07T10:28:55.161Z,98448.77
2018-03-07T10:31:22.777Z,98439.98
2018-03-07T10:33:50.460Z,98442.27
2018-03-07T10:36:18.080Z,98432.53
2018-03-07T10:38:45.764Z,98447.73
2018-03-07T10:41:13.409Z,98451.61
2018-03-07T10:43:41.063Z,98450.39
2018-03-07T10:46:08.681Z,98449.42
2018-03-07T10:48:36.370Z,98447.34
2018-03-07T10:51:03.997Z,98447.23
2018-03-07T10:53:31.659Z,98451.30
2018-03-07T10:55:59.296Z,98443.31
2018-03-07T10:58:26.896Z,98441.26
2018-03-07T11:00:54.537Z,98453.19
2018-03-07T11:03:22.163Z,98452.91
2018-03-07T11:05:49.823Z,98456.61
2018-03-07T11:08:17.416Z,98453.13
2018-03-07T11:10:45.053Z,98458.40
2018-03-07T11:13:12.664Z,98463.29
2018-03-07T11:15:40.730Z,98457.83
2018-03-07T11:18:08.354Z,98457.55
2018-03-07T11:20:36.077Z,98460.22
2018-03-07T11:23:03.686Z,98472.65
2018-03-07T11:25:31.347Z,98469.19
2018-03-07T11:27:58.997Z,98469.06
2018-03-07T11:30:26.656Z,98469.02
2018-03-07T11:32:54.281Z,98479.70
2018-03-07T11:35:21.934Z,98478.91
2018-03-07T11:37:49.836Z,98470.72
2018-03-07T11:40:17.624Z,98475.01
2018-03-07T11:42:45.248Z,98484.80
2018-03-07T11:45:12.912Z,98485.91
2018-03-07T11:47:40.520Z,98480.25
2018-03-07T11:50:08.161Z,98486.13
2018-03-07T11:52:35.772Z,98484.86
2018-03-07T11:55:03.428Z,98488.14
2018-03-07T11:57:31.036Z,98482.59
2018-03-07T11:59:58.684Z,98484.13
2018-03-07T12:02:26.339Z,98479.85
2018-03-07T12:04:53.984Z,98477.78
2018-03-07T12:07:21.592Z,98480.38
2018-03-07T12:09:49.291Z,98475.98
2018-03-07T12:12:16.893Z,98471.21
2018-03-07T12:14:44.549Z,98468.41
2018-03-07T12:17:12.228Z,98468.23
2018-03-07T12:19:39.937Z,98472.74
2018-03-07T12:22:07.540Z,98471.71
2018-03-07T12:24:35.264Z,98473.37
2018-03-07T12:27:02.875Z,98469.92
2018-03-07T12:29:30.531Z,98474.17
2018-03-07T12:31:58.156Z,98471.13
2018-03-07T12:34:25.880Z,98469.61
2018-03-07T12:36:53.492Z,98464.02
2018-03-07T12:39:21.147Z,98465.75
2018-03-07T12:41:48.793Z,98466.45
2018-03-07T12:44:16.476Z,98459.84
2018-03-07T12:46:44.078Z,98470.70
2018-03-07T12:49:11.724Z,98463.70
2018-03-07T12:51:39.328Z,98461.91
2018-03-07T12:54:06.979Z,98462.50
2018-03-07T12:56:34.590Z,98459.54
2018-03-07T12:59:02.292Z,98463.94
2018-03-07T13:01:29.905Z,98456.66
2018-03-07T13:03:57.516Z,98463.41
2018-03-07T13:06:25.210Z,98460.00
2018-03-07T13:08:52.820Z,98460.19
2018-03-07T13:11:20.461Z,98464.56
2018-03-07T13:13:48.082Z,98466.45
2018-03-07T13:16:15.728Z,98462.81
2018-03-07T13:18:43.344Z,98470.56
2018-03-07T13:21:10.989Z,98468.24
2018-03-07T13:23:38.600Z,98465.86
2018-03-07T13:26:06.261Z,98470.48
2018-03-07T13:28:33.856Z,98466.30
2018-03-07T13:31:01.509Z,98463.91
2018-03-07T13:33:29.128Z,98468.51
2018-03-07T13:35:56.776Z,98472.50
2018-03-07T13:38:24.390Z,98465.03
2018-03-07T13:40:52.037Z,98465.29
2018-03-07T13:43:19.647Z,98463.25
2018-03-07T13:45:47.344Z,98465.41
2018-03-07T13:48:14.980Z,98453.33
2018-03-07T13:50:42.690Z,98460.45
2018-03-07T13:53:10.333Z,98457.94
2018-03-07T13:55:37.980Z,98463.31
2018-03-07T13:58:05.610Z,98463.17
2018-03-07T14:00:33.253Z,98462.16
2018-03-07T14:03:00.869Z,98469.37
2018-03-07T14:05:28.554Z,98478.71
2018-03-07T14:07:56.175Z,98476.41
2018-03-07T14:10:23.821Z,98479.05
2018-03-07T14:12:51.421Z,98470.05
2018-03-07T14:15:19.069Z,98473.94
2018-03-07T14:17:46.684Z,98466.00
2018-03-07T14:20:14.328Z,98470.73
2018-03-07T14:22:41.952Z,98465.88
2018-03-07T14:25:09.614Z,98474.27
2018-03-07T14:30:10.214Z,98468.70
2018-03-07T14:32:37.836Z,98471.01
2018-03-07T14:35:05.765Z,98469.16
2018-03-07T14:37:33.377Z,98471.27
2018-03-07T14:40:01.510Z,98470.94
2018-03-07T14:42:29.125Z,98466.80
2018-03-07T14:44:56.807Z,98476.52
2018-03-07T14:47:24.424Z,98476.51
2018-03-07T14:49:52.130Z,98481.59
2018-03-07T14:52:19.724Z,98487.57
2018-03-07T14:54:47.364Z,98508.50
2018-03-07T14:57:15.067Z,98521.93
2018-03-07T14:59:42.761Z,98509.73
2018-03-07T15:02:10.661Z,98514.19
2018-03-07T15:04:38.315Z,98502.92
2018-03-07T15:07:05.924Z,98503.60
2018-03-07T15:09:33.573Z,98507.56
2018-03-07T15:12:01.184Z,98508.39
2018-03-07T15:14:28.852Z,98505.53
2018-03-07T15:16:57.421Z,98506.00
2018-03-07T15:19:25.046Z,98511.45
2018-03-07T15:21:52.724Z,98521.48
2018-03-07T15:24:20.331Z,98516.38
2018-03-07T15:26:48.134Z,98515.11
2018-03-07T15:29:15.768Z,98513.28
2018-03-07T15:31:43.421Z,98520.39
2018-03-07T15:34:11.045Z,98511.72
2018-03-07T15:36:38.689Z,98516.20
2018-03-07T15:39:06.290Z,98523.66
2018-03-07T15:41:33.951Z,98522.41
2018-03-07T15:44:01.556Z,98516.52
2018-03-07T15:46:29.246Z,98517.03
2018-03-07T15:48:56.844Z,98523.72
2018-03-07T15:51:24.864Z,98520.83
2018-03-07T15:53:52.820Z,98518.26
2018-03-07T15:56:20.751Z,98529.45
2018-03-07T15:58:48.522Z,98530.77
2018-03-07T16:01:16.273Z,98513.45
2018-03-07T16:03:43.881Z,98518.04
2018-03-07T16:06:11.522Z,98518.38
2018-03-07T16:08:39.420Z,98525.50
2018-03-07T16:11:07.066Z,98529.84
2018-03-07T16:13:34.934Z,98536.00
2018-03-07T16:16:02.696Z,98533.96
2018-03-07T16:18:30.316Z,98533.20
2018-03-07T16:20:57.957Z,98525.77
2018-03-07T16:23:25.561Z,98540.59
2018-03-07T16:25:53.221Z,98542.59
2018-03-07T16:28:20.830Z,98535.59
2018-03-07T16:30:48.592Z,98535.97
2018-03-07T16:33:16.205Z,98542.52
2018-03-07T16:35:43.864Z,98544.72
2018-03-07T16:38:11.460Z,98541.27
2018-03-07T16:40:39.096Z,98560.17
2018-03-07T16:43:06.720Z,98553.20
2018-03-07T16:45:34.368Z,98560.33
2018-03-07T16:48:01.998Z,98560.63
2018-03-07T16:50:29.649Z,98559.97
2018-03-07T16:52:57.247Z,98558.68
2018-03-07T16:55:24.896Z,98553.98
2018-03-07T16:57:52.512Z,98563.07
2018-03-07T17:00:20.172Z,98564.98
2018-03-07T17:02:47.777Z,98571.23
2018-03-07T17:05:15.415Z,98575.41
2018-03-07T17:07:43.021Z,98578.34
2018-03-07T17:10:10.744Z,98581.38
2018-03-07T17:12:38.371Z,98577.46
2018-03-07T17:15:06.012Z,98572.92
2018-03-07T17:17:33.616Z,98581.34
2018-03-07T17:20:02.782Z,98587.12
2018-03-07T17:22:30.436Z,98596.02
2018-03-07T17:24:58.045Z,98599.91
2018-03-07T17:27:25.700Z,98596.59
2018-03-07T17:29:53.309Z,98605.80
2018-03-07T17:32:20.965Z,98609.31
2018-03-07T17:34:48.564Z,98608.15
2018-03-07T17:37:16.205Z,98613.52
2018-03-07T17:39:43.855Z,98618.45
2018-03-07T17:42:11.501Z,98616.05
2018-03-07T17:44:39.135Z,98619.58
2018-03-07T17:47:06.773Z,98625.99
2018-03-07T17:49:34.379Z,98627.62
2018-03-07T17:52:02.021Z,98626.80
2018-03-07T17:54:29.732Z,98634.57
2018-03-07T17:56:58.090Z,98637.05
2018-03-07T17:59:25.800Z,98634.05
2018-03-07T18:01:53.433Z,98642.82
2018-03-07T18:04:21.036Z,98644.72
2018-03-07T18:06:48.948Z,98647.62
2018-03-07T18:09:16.640Z,98642.92
2018-03-07T18:11:44.406Z,98647.36
2018-03-07T18:14:12.244Z,98656.73
2018-03-07T18:16:40.122Z,98655.88
2018-03-07T18:19:08.079Z,98650.22
2018-03-07T18:21:35.719Z,98654.27
2018-03-07T18:24:03.323Z,98651.14
2018-03-07T18:26:30.924Z,98661.07
2018-03-07T18:28:58.620Z,98662.64
2018-03-07T18:31:26.256Z,98668.12
2018-03-07T18:33:54.472Z,98680.27
2018-03-07T18:36:22.154Z,98673.32
2018-03-07T18:38:50.313Z,98683.70
2018-03-07T18:41:18.417Z,98688.53
2018-03-07T18:43:46.117Z,98690.72
2018-03-07T18:46:13.783Z,98687.47
2018-03-07T18:48:41.548Z,98693.35
2018-03-07T18:51:09.149Z,98696.75
2018-03-07T18:53:36.800Z,98705.67
2018-03-07T18:56:04.400Z,98702.44
2018-03-07T18:58:32.045Z,98705.67
2018-03-07T19:00:59.769Z,98705.56
2018-03-07T19:03:27.641Z,98711.48
2018-03-07T19:05:55.770Z,98716.17
2018-03-07T19:08:23.513Z,98711.83
2018-03-07T19:10:55.141Z,98708.47
2018-03-07T19:13:22.799Z,98714.59
2018-03-07T19:15:55.178Z,98707.95
2018-03-07T19:18:22.876Z,98713.38
2018-03-07T19:20:50.532Z,98715.53
2018-03-07T19:23:18.140Z,98711.38
2018-03-07T19:25:45.785Z,98717.24
2018-03-07T19:28:13.384Z,98719.42
2018-03-07T19:30:41.039Z,98717.36
2018-03-07T19:33:08.665Z,98724.61
2018-03-07T19:35:36.356Z,98725.70
2018-03-07T19:38:03.957Z,98728.42
2018-03-07T19:40:31.596Z,98723.17
2018-03-07T19:42:59.347Z,98739.00
2018-03-07T19:45:26.996Z,98737.69
2018-03-07T19:47:54.620Z,98736.09
2018-03-07T19:50:22.269Z,98731.33
2018-03-07T19:52:49.891Z,98743.52
2018-03-07T19:55:17.532Z,98743.09
2018-03-07T19:57:45.145Z,98735.50
2018-03-07T20:00:12.837Z,98742.97
2018-03-07T20:02:40.426Z,98740.81
2018-03-07T20:05:08.022Z,98740.12
2018-03-07T20:07:35.671Z,98749.27
2018-03-07T20:10:03.272Z,98748.31
2018-03-07T20:12:30.959Z,98753.44
2018-03-07T20:14:58.579Z,98754.69
2018-03-07T20:17:26.224Z,98761.19
2018-03-07T20:19:53.839Z,98755.16
2018-03-07T20:22:21.495Z,98769.84
2018-03-07T20:24:49.088Z,98769.92
2018-03-07T20:27:16.733Z,98775.29
2018-03-07T20:29:44.342Z,98778.91
2018-03-07T20:32:11.988Z,98792.00
2018-03-07T20:34:39.611Z,98783.53
2018-03-07T20:37:07.263Z,98790.63
2018-03-07T20:39:34.873Z,98795.47
2018-03-07T20:42:02.519Z,98804.85
2018-03-07T20:44:30.118Z,98803.33
2018-03-07T20:46:58.151Z,98805.36
2018-03-07T20:49:25.761Z,98801.25
2018-03-07T20:51:53.403Z,98811.42
2018-03-07T20:54:21.006Z,98824.58
2018-03-07T20:56:48.727Z,98828.83
2018-03-07T20:59:16.341Z,98831.97
2018-03-07T21:01:44.016Z,98843.98
2018-03-07T21:04:11.637Z,98847.56
2018-03-07T21:06:39.289Z,98844.09
2018-03-07T21:09:06.905Z,98852.09
2018-03-07T21:11:34.556Z,98849.23
2018-03-07T21:14:02.158Z,98854.89
2018-03-07T21:16:29.796Z,98847.97
2018-03-07T21:18:57.402Z,98861.02
2018-03-07T21:21:25.058Z,98861.26
2018-03-07T21:23:52.676Z,98868.81
2018-03-07T21:26:20.317Z,98861.70
2018-03-07T21:28:47.916Z,98868.27
2018-03-07T21:31:15.648Z,98871.24
2018-03-07T21:33:43.248Z,98874.94
2018-03-07T21:36:10.897Z,98873.20
2018-03-07T21:38:38.510Z,98879.27
2018-03-07T21:41:06.112Z,98878.24
2018-03-07T21:43:33.768Z,98882.47
2018-03-07T21:46:01.415Z,98873.23
2018-03-07T21:48:29.051Z,98886.73
2018-03-07T21:50:56.677Z,98888.52
2018-03-07T21:53:24.325Z,98892.81
2018-03-07T21:55:52.292Z,98901.16
2018-03-07T21:58:19.993Z,98901.14
2018-03-07T22:00:47.592Z,98896.97
2018-03-07T22:03:15.252Z,98900.19
2018-03-07T22:05:42.866Z,98905.89
2018-03-07T22:08:10.525Z,98910.98
2018-03-07T22:10:38.123Z,98916.17
2018-03-07T22:13:05.784Z,98922.59
2018-03-07T22:15:33.430Z,98921.94
2018-03-07T22:18:01.112Z,98923.21
2018-03-07T22:20:28.736Z,98929.32
2018-03-07T22:22:56.381Z,98930.31
2018-03-07T22:25:23.980Z,98935.06
2018-03-07T22:27:51.624Z,98937.34
2018-03-07T22:30:19.229Z,98943.27
2018-03-07T22:32:46.868Z,98949.17
2018-03-07T22:35:14.487Z,98947.22
2018-03-07T22:37:42.126Z,98946.23
2018-03-07T22:40:09.731Z,98950.45
2018-03-07T22:42:37.376Z,98953.86
2018-03-07T22:45:04.980Z,98959.84
2018-03-07T22:47:32.624Z,98958.37
2018-03-07T22:50:00.250Z,98967.62
2018-03-07T22:52:27.898Z,98967.56
2018-03-07T22:54:55.526Z,98973.11
2018-03-07T22:57:23.169Z,98975.20
2018-03-07T22:59:50.777Z,98980.77
2018-03-07T23:02:18.424Z,98986.87
2018-03-07T23:04:46.018Z,98988.14
2018-03-07T23:07:13.673Z,98996.01
2018-03-07T23:09:41.317Z,98998.45
2018-03-07T23:12:08.971Z,98999.84
2018-03-07T23:14:36.571Z,99003.44
2018-03-07T23:17:04.233Z,99000.55
2018-03-07T23:19:32.737Z,99010.47
2018-03-07T23:22:00.434Z,99020.22
2018-03-07T23:24:28.040Z,99009.84
2018-03-07T23:26:55.688Z,99022.52
2018-03-07T23:29:23.288Z,99022.58
2018-03-07T23:31:50.984Z,99025.58
2018-03-07T23:34:18.588Z,99028.63
2018-03-07T23:36:46.224Z,99026.36
2018-03-07T23:39:13.837Z,99039.37
2018-03-07T23:41:41.518Z,99036.64
2018-03-07T23:44:09.205Z,99046.94
2018-03-07T23:46:36.808Z,99041.30
2018-03-07T23:49:04.449Z,99050.30
2018-03-07T23:51:32.060Z,99047.58
2018-03-07T23:53:59.698Z,99051.13
2018-03-07T23:56:27.289Z,99048.30
2018-03-07T23:58:54.943Z,99046.08
